Time;durP1;ratioP1;P1;durP2;ratioP2;P2;SDS_P1;SDS_P2;PMS_P1;PMS_P2;Temp;Humidity;BMP_temperature;BMP_pressure;BME280_temperature;BME280_humidity;BME280_pressure;Samples;Min_cycle;Max_cycle;Signal;HPM_P1;HPM_P2
2021/07/13 00:00:12;;;;;;;17.92;16.10;;;20.40;99.90;;;;;;5036599;28;20481;-77
2021/07/13 00:02:39;;;;;;;17.30;15.50;;;20.30;99.90;;;;;;5033720;28;20025;-82
2021/07/13 00:05:07;;;;;;;23.23;20.95;;;20.30;99.90;;;;;;5028760;28;20380;-78
2021/07/13 00:07:33;;;;;;;32.67;25.23;;;20.30;99.90;;;;;;5030679;28;20056;-81
2021/07/13 00:09:59;;;;;;;63.08;56.45;;;20.20;99.90;;;;;;5030349;28;20318;-81
2021/07/13 00:12:24;;;;;;;20.25;18.13;;;20.20;99.90;;;;;;5034087;28;20021;-79
2021/07/13 00:14:50;;;;;;;18.40;16.70;;;20.20;99.90;;;;;;5028317;28;20040;-76
2021/07/13 00:17:15;;;;;;;20.15;17.85;;;20.20;99.90;;;;;;5028776;28;20029;-76
2021/07/13 00:19:41;;;;;;;17.67;15.90;;;20.20;99.90;;;;;;5031988;28;20522;-76
2021/07/13 00:22:06;;;;;;;18.40;16.65;;;20.20;99.90;;;;;;5030629;28;20068;-76
2021/07/13 00:24:32;;;;;;;18.10;16.33;;;20.20;99.90;;;;;;5029876;28;20114;-76
2021/07/13 00:26:57;;;;;;;18.10;16.40;;;20.20;99.90;;;;;;5027609;28;20025;-76
2021/07/13 00:29:23;;;;;;;17.88;16.05;;;20.20;99.90;;;;;;5025107;28;20667;-76
2021/07/13 00:31:49;;;;;;;18.88;16.92;;;20.20;99.90;;;;;;5025001;28;20013;-77
2021/07/13 00:34:15;;;;;;;18.13;16.38;;;;;;;;;;5027694;28;20025;-78
2021/07/13 00:36:41;;;;;;;17.90;16.20;;;20.20;99.90;;;;;;5025307;28;20021;-77
2021/07/13 00:39:06;;;;;;;18.80;17.00;;;20.20;99.90;;;;;;5026160;28;20025;-77
2021/07/13 00:41:35;;;;;;;17.65;16.00;;;20.10;99.90;;;;;;5030712;28;20029;-77
2021/07/13 00:44:01;;;;;;;17.30;15.55;;;20.10;99.90;;;;;;5028176;28;20040;-76
2021/07/13 00:46:27;;;;;;;17.92;16.23;;;20.10;99.90;;;;;;5031213;28;20056;-76
2021/07/13 00:48:53;;;;;;;17.98;16.08;;;20.10;99.90;;;;;;5024273;28;20029;-76
2021/07/13 00:51:19;;;;;;;17.60;15.70;;;20.10;99.90;;;;;;5034220;28;20033;-76
2021/07/13 00:53:47;;;;;;;17.23;15.50;;;20.00;99.90;;;;;;5028743;28;20514;-77
2021/07/13 00:56:13;;;;;;;18.35;16.50;;;20.00;99.90;;;;;;5029987;28;20036;-77
2021/07/13 00:58:38;;;;;;;18.40;16.40;;;20.00;99.90;;;;;;5024412;28;20029;-77
2021/07/13 01:01:06;;;;;;;16.75;15.05;;;20.50;99.90;;;;;;5030877;28;20035;-76
2021/07/13 01:03:33;;;;;;;17.83;16.02;;;19.90;99.90;;;;;;5027189;28;20033;-77
2021/07/13 01:05:59;;;;;;;16.70;15.00;;;19.80;99.90;;;;;;5031231;28;20461;-78
2021/07/13 01:08:35;;;;;;;17.35;15.55;;;19.80;99.90;;;;;;5031554;28;20109;-78
2021/07/13 01:11:25;;;;;;;16.80;15.20;;;19.80;99.90;;;;;;5026878;28;20048;-78
2021/07/13 01:13:59;;;;;;;18.80;16.90;;;19.70;99.90;;;;;;5033326;28;20024;-78
2021/07/13 01:16:52;;;;;;;16.42;14.82;;;19.70;99.90;;;;;;5032645;28;20480;-78
2021/07/13 01:19:48;;;;;;;17.42;15.73;;;19.70;99.90;;;;;;5027025;28;20049;-78
2021/07/13 01:22:24;;;;;;;18.02;15.95;;;19.70;99.90;;;;;;5024884;28;20434;-77
2021/07/13 01:25:01;;;;;;;17.85;16.15;;;19.60;99.90;;;;;;5027090;28;20392;-77
2021/07/13 01:27:47;;;;;;;17.60;15.90;;;19.60;99.90;;;;;;5023487;28;20021;-77
2021/07/13 01:30:20;;;;;;;17.88;16.08;;;19.60;99.90;;;;;;5031286;28;20029;-77
2021/07/13 01:32:49;;;;;;;17.38;15.70;;;19.60;99.90;;;;;;5026961;28;20035;-78
2021/07/13 01:35:39;;;;;;;18.15;16.30;;;19.60;99.90;;;;;;5028462;28;20049;-79
2021/07/13 01:38:08;;;;;;;18.05;16.20;;;19.60;99.90;;;;;;5029234;28;20026;-78
2021/07/13 01:40:34;;;;;;;18.63;16.73;;;19.50;99.90;;;;;;5026599;28;20123;-79
2021/07/13 01:42:59;;;;;;;17.95;16.25;;;19.50;99.90;;;;;;5028628;28;20447;-79
2021/07/13 01:45:26;;;;;;;20.02;17.92;;;19.50;99.90;;;;;;5030695;28;20479;-79
2021/07/13 01:47:53;;;;;;;28.42;25.58;;;19.50;99.90;;;;;;5029865;28;20025;-76
2021/07/13 01:50:20;;;;;;;29.63;26.73;;;19.40;99.90;;;;;;5031708;28;20022;-76
2021/07/13 01:52:46;;;;;;;27.95;25.20;;;19.40;99.90;;;;;;5026952;28;20022;-76
2021/07/13 01:55:13;;;;;;;28.50;25.55;;;19.40;99.90;;;;;;5027232;28;20038;-79
2021/07/13 01:57:39;;;;;;;27.08;24.15;;;19.40;99.90;;;;;;5032609;28;20029;-79
2021/07/13 02:00:08;;;;;;;24.15;21.55;;;19.40;99.90;;;;;;5025934;28;20037;-78
2021/07/13 02:02:35;;;;;;;23.33;21.02;;;19.40;99.90;;;;;;5025413;28;20021;-77
2021/07/13 02:05:02;;;;;;;21.48;19.17;;;19.30;99.90;;;;;;5026364;28;20144;-76
2021/07/13 02:07:31;;;;;;;21.27;19.15;;;19.30;99.90;;;;;;5029105;28;20030;-76
2021/07/13 02:09:58;;;;;;;20.70;18.60;;;19.30;99.90;;;;;;5026515;28;20029;-78
2021/07/13 02:12:24;;;;;;;19.80;17.83;;;19.20;99.90;;;;;;5027263;28;20021;-77
2021/07/13 02:14:50;;;;;;;19.05;17.25;;;19.30;99.90;;;;;;5025763;28;20529;-76
2021/07/13 02:17:15;;;;;;;17.02;15.23;;;19.30;99.90;;;;;;5033265;28;20566;-76
2021/07/13 02:19:40;;;;;;;19.00;17.08;;;19.20;99.90;;;;;;5021917;28;20025;-79
2021/07/13 02:22:07;;;;;;;18.73;16.67;;;19.20;99.90;;;;;;5030314;28;20321;-79
2021/07/13 02:24:32;;;;;;;18.98;17.08;;;19.20;99.90;;;;;;5028620;28;20034;-79
2021/07/13 02:27:12;;;;;;;17.80;16.00;;;19.10;99.90;;;;;;5029239;28;20654;-79
2021/07/13 02:29:57;;;;;;;17.73;15.88;;;19.10;99.90;;;;;;5030978;28;20025;-79
2021/07/13 02:32:39;;;;;;;20.25;15.30;;;19.10;99.90;;;;;;5031192;28;20022;-79
2021/07/13 02:35:06;;;;;;;18.58;16.75;;;19.10;99.90;;;;;;5028163;28;20055;-78
2021/07/13 02:37:36;;;;;;;17.63;16.02;;;19.10;99.90;;;;;;5035192;28;20022;-79
2021/07/13 02:40:04;;;;;;;16.95;15.35;;;19.10;99.90;;;;;;5031830;28;20331;-79
2021/07/13 02:42:30;;;;;;;19.15;17.25;;;19.10;99.90;;;;;;5028292;28;20029;-78
2021/07/13 02:44:56;;;;;;;17.83;16.02;;;19.10;99.90;;;;;;5032439;28;20040;-79
2021/07/13 02:47:22;;;;;;;17.52;15.55;;;19.10;99.90;;;;;;5025363;28;20032;-78
2021/07/13 02:49:51;;;;;;;18.15;16.27;;;19.10;99.90;;;;;;5029312;28;20766;-79
2021/07/13 02:52:29;;;;;;;18.92;16.90;;;19.20;99.90;;;;;;5033711;28;20164;-79
2021/07/13 02:55:08;;;;;;;18.25;16.30;;;19.10;99.90;;;;;;5034158;28;20050;-78
2021/07/13 02:57:36;;;;;;;17.25;14.95;;;19.20;99.90;;;;;;5032706;28;20029;-79
2021/07/13 03:00:04;;;;;;;17.95;15.85;;;19.10;99.90;;;;;;5034939;28;20142;-78
2021/07/13 03:02:30;;;;;;;16.73;15.02;;;19.10;99.90;;;;;;5026370;28;20068;-77
2021/07/13 03:04:57;;;;;;;17.90;15.98;;;19.00;99.90;;;;;;5027132;28;20063;-77
2021/07/13 03:07:23;;;;;;;16.98;15.20;;;19.00;99.90;;;;;;5026595;28;20109;-77
2021/07/13 03:09:49;;;;;;;18.00;16.20;;;19.00;99.90;;;;;;5029355;28;20458;-77
2021/07/13 03:12:16;;;;;;;18.25;16.35;;;19.00;99.90;;;;;;5032971;28;20037;-77
2021/07/13 03:14:43;;;;;;;20.13;16.45;;;19.50;99.90;;;;;;5032045;28;20172;-76
2021/07/13 03:17:10;;;;;;;18.25;16.45;;;19.00;99.90;;;;;;5040830;28;20064;-77
2021/07/13 03:19:36;;;;;;;18.35;16.45;;;19.00;99.90;;;;;;5034263;28;20025;-77
2021/07/13 03:22:03;;;;;;;16.80;15.20;;;19.10;99.90;;;;;;5030690;28;20532;-77
2021/07/13 03:24:29;;;;;;;16.67;14.90;;;19.00;99.90;;;;;;5034078;28;20045;-77
2021/07/13 03:26:56;;;;;;;18.08;16.27;;;19.10;99.90;;;;;;5032027;28;20025;-78
2021/07/13 03:29:23;;;;;;;17.50;15.70;;;19.10;99.90;;;;;;5034155;28;20032;-79
2021/07/13 03:31:49;;;;;;;16.42;14.82;;;19.00;99.90;;;;;;5029873;28;20058;-77
2021/07/13 03:34:15;;;;;;;19.02;17.08;;;19.10;99.90;;;;;;5031376;28;20045;-77
2021/07/13 03:36:42;;;;;;;17.40;15.57;;;19.00;99.90;;;;;;5032198;28;20035;-77
2021/07/13 03:39:08;;;;;;;16.90;15.20;;;19.00;99.90;;;;;;5027122;28;20087;-77
2021/07/13 03:41:35;;;;;;;18.35;16.45;;;19.00;99.90;;;;;;5034953;28;20094;-77
2021/07/13 03:44:04;;;;;;;17.27;15.57;;;19.00;99.90;;;;;;5027322;28;20112;-77
2021/07/13 03:46:37;;;;;;;18.75;15.05;;;19.00;99.90;;;;;;5028507;28;20464;-77
2021/07/13 03:49:07;;;;;;;17.40;15.45;;;19.00;99.90;;;;;;5031081;28;20033;-78
2021/07/13 03:51:46;;;;;;;17.00;15.25;;;19.10;99.90;;;;;;5028712;28;20407;-77
2021/07/13 03:54:14;;;;;;;16.98;14.73;;;19.10;99.90;;;;;;5031119;28;20038;-77
2021/07/13 03:56:41;;;;;;;17.17;15.48;;;19.10;99.90;;;;;;5022135;28;20056;-77
2021/07/13 03:59:08;;;;;;;16.95;15.30;;;19.10;99.90;;;;;;5029480;28;20109;-76
2021/07/13 04:01:34;;;;;;;16.90;15.25;;;19.20;99.90;;;;;;5033778;28;20048;-76
2021/07/13 04:03:59;;;;;;;16.67;14.93;;;19.30;99.90;;;;;;5034769;28;20518;-79
2021/07/13 04:06:38;;;;;;;20.55;15.05;;;19.30;99.90;;;;;;5030751;28;20025;-80
2021/07/13 04:09:07;;;;;;;17.38;15.45;;;19.30;99.90;;;;;;5027861;28;20029;-77
2021/07/13 04:11:33;;;;;;;17.77;15.15;;;19.40;99.90;;;;;;5027594;28;20022;-77
2021/07/13 04:13:58;;;;;;;16.33;14.73;;;19.40;99.90;;;;;;5025813;28;20831;-77
2021/07/13 04:16:24;;;;;;;16.88;15.23;;;19.40;99.90;;;;;;5021055;28;20091;-77
2021/07/13 04:18:49;;;;;;;16.92;14.90;;;19.40;99.90;;;;;;5028560;28;20040;-77
2021/07/13 04:21:15;;;;;;;16.27;14.70;;;19.50;99.90;;;;;;5028436;28;20042;-79
2021/07/13 04:23:40;;;;;;;18.95;15.20;;;18.90;99.90;;;;;;5041897;28;20693;-77
2021/07/13 04:26:06;;;;;;;18.50;16.48;;;19.60;99.90;;;;;;5029950;28;20032;-77
2021/07/13 04:28:32;;;;;;;17.02;15.13;;;19.50;99.90;;;;;;5034380;28;20032;-79
2021/07/13 04:30:59;;;;;;;16.95;15.18;;;19.60;99.90;;;;;;5031450;28;20267;-77
2021/07/13 04:33:25;;;;;;;17.15;14.02;;;19.60;99.90;;;;;;5025987;28;20014;-77
2021/07/13 04:35:51;;;;;;;17.33;15.13;;;19.60;99.90;;;;;;5025685;28;20051;-77
2021/07/13 04:38:17;;;;;;;21.45;15.80;;;;;;;;;;5026991;28;20032;-77
2021/07/13 04:40:42;;;;;;;16.15;14.60;;;19.80;99.90;;;;;;5027093;28;20158;-77
2021/07/13 04:43:08;;;;;;;16.33;14.45;;;19.80;99.90;;;;;;5024307;28;20031;-77
2021/07/13 04:45:33;;;;;;;16.52;14.93;;;19.90;99.90;;;;;;5025489;28;20025;-79
2021/07/13 04:47:59;;;;;;;17.02;15.25;;;19.90;99.90;;;;;;5017233;28;20036;-77
2021/07/13 04:50:24;;;;;;;18.65;15.50;;;20.00;99.90;;;;;;5015833;28;20116;-77
2021/07/13 04:52:50;;;;;;;16.77;15.18;;;20.00;99.90;;;;;;5018731;28;20664;-77
2021/07/13 04:55:17;;;;;;;16.27;14.35;;;20.00;99.90;;;;;;5023536;28;20031;-77
2021/07/13 04:57:44;;;;;;;17.73;15.10;;;20.10;99.90;;;;;;5018029;28;20112;-77
2021/07/13 05:00:10;;;;;;;19.85;17.50;;;20.10;99.90;;;;;;5028395;28;20091;-78
2021/07/13 05:02:36;;;;;;;19.38;16.23;;;20.20;99.90;;;;;;5032486;28;20116;-78
2021/07/13 05:05:02;;;;;;;16.90;15.07;;;20.20;99.90;;;;;;5031942;28;20116;-77
2021/07/13 05:07:27;;;;;;;16.02;13.88;;;20.20;99.90;;;;;;5028297;28;20029;-80
2021/07/13 05:09:53;;;;;;;16.25;14.55;;;20.20;99.90;;;;;;5024071;28;20025;-78
2021/07/13 05:12:18;;;;;;;16.42;14.60;;;20.20;99.90;;;;;;5030788;28;20666;-77
2021/07/13 05:14:44;;;;;;;15.55;13.88;;;20.20;99.90;;;;;;5033582;28;20077;-78
2021/07/13 05:17:11;;;;;;;16.48;14.85;;;20.40;99.90;;;;;;5032034;28;20138;-77
2021/07/13 05:19:39;;;;;;;16.83;15.02;;;20.40;99.90;;;;;;5021924;28;20070;-77
2021/07/13 05:22:07;;;;;;;15.02;13.55;;;20.50;99.90;;;;;;5016987;28;20039;-77
2021/07/13 05:24:33;;;;;;;16.45;14.80;;;20.40;99.90;;;;;;5025786;28;20041;-77
2021/07/13 05:26:58;;;;;;;16.77;15.15;;;20.40;99.90;;;;;;5024901;28;20653;-78
2021/07/13 05:29:24;;;;;;;16.02;14.32;;;20.60;99.90;;;;;;5028865;28;20024;-78
2021/07/13 05:31:50;;;;;;;15.73;14.15;;;20.70;99.90;;;;;;5028313;28;20033;-77
2021/07/13 05:34:16;;;;;;;15.25;13.45;;;20.80;99.90;;;;;;5033904;28;20504;-78
2021/07/13 05:36:41;;;;;;;15.93;14.25;;;;;;;;;;5029094;28;20026;-78
2021/07/13 05:39:08;;;;;;;15.40;13.88;;;21.00;99.90;;;;;;5032558;28;20041;-78
2021/07/13 05:41:34;;;;;;;15.70;13.85;;;21.00;99.90;;;;;;5034696;28;20106;-78
2021/07/13 05:44:00;;;;;;;14.02;12.68;;;21.20;99.90;;;;;;5035395;28;20078;-78
2021/07/13 05:46:25;;;;;;;15.15;13.57;;;21.50;99.90;;;;;;5024442;28;20440;-79
2021/07/13 05:48:51;;;;;;;15.50;13.90;;;21.60;99.90;;;;;;5029819;28;20120;-77
2021/07/13 05:51:17;;;;;;;15.00;13.35;;;21.70;99.90;;;;;;5033359;28;20151;-78
2021/07/13 05:53:42;;;;;;;14.93;13.43;;;22.00;99.90;;;;;;5026646;28;20025;-77
2021/07/13 05:56:10;;;;;;;14.30;12.80;;;22.30;99.90;;;;;;5032851;28;20029;-77
2021/07/13 05:58:36;;;;;;;13.98;12.38;;;22.10;99.90;;;;;;5033992;28;20113;-78
2021/07/13 06:01:02;;;;;;;13.60;12.20;;;22.00;99.90;;;;;;5031492;28;20116;-77
2021/07/13 06:03:27;;;;;;;14.10;12.60;;;22.00;99.90;;;;;;5033506;28;20041;-79
2021/07/13 06:05:53;;;;;;;12.65;11.23;;;21.90;99.90;;;;;;5032459;28;20032;-78
2021/07/13 06:08:18;;;;;;;14.68;11.73;;;21.80;99.90;;;;;;5031613;28;20543;-76
2021/07/13 06:10:44;;;;;;;13.30;12.00;;;21.80;99.90;;;;;;5033790;28;20024;-78
2021/07/13 06:13:09;;;;;;;11.98;10.75;;;21.90;99.90;;;;;;5033688;28;20159;-77
2021/07/13 06:15:35;;;;;;;12.27;11.18;;;22.10;99.90;;;;;;5036038;28;20037;-78
2021/07/13 06:18:00;;;;;;;15.35;11.70;;;22.20;99.90;;;;;;5033865;28;20044;-83
2021/07/13 06:20:26;;;;;;;12.80;10.75;;;22.20;99.90;;;;;;5030808;28;20475;-82
2021/07/13 06:22:52;;;;;;;12.65;11.32;;;22.50;99.90;;;;;;5037451;28;20017;-86
2021/07/13 06:25:17;;;;;;;13.70;11.75;;;22.70;99.90;;;;;;5034112;28;20033;-82
2021/07/13 06:27:43;;;;;;;13.57;10.55;;;22.90;99.90;;;;;;5034401;28;20021;-84
2021/07/13 06:30:09;;;;;;;11.95;10.63;;;22.90;99.90;;;;;;5037407;28;20021;-80
2021/07/13 06:32:35;;;;;;;11.65;10.13;;;22.90;99.90;;;;;;5034163;28;20058;-81
2021/07/13 06:35:01;;;;;;;12.85;11.50;;;23.30;99.90;;;;;;5037242;28;20338;-80
2021/07/13 06:37:28;;;;;;;11.25;10.15;;;23.40;99.90;;;;;;5040757;28;20033;-80
2021/07/13 06:39:54;;;;;;;10.88;9.77;;;23.60;99.90;;;;;;5042076;28;20037;-82
2021/07/13 06:42:23;;;;;;;9.63;8.73;;;24.10;99.90;;;;;;5041906;28;20025;-81
2021/07/13 06:44:49;;;;;;;12.73;9.52;;;24.10;99.90;;;;;;5044113;28;20070;-83
2021/07/13 06:47:16;;;;;;;9.38;8.48;;;;;;;;;;5036355;28;20037;-88
2021/07/13 06:49:42;;;;;;;9.88;8.88;;;25.90;99.90;;;;;;5036606;28;20018;-87
2021/07/13 06:52:07;;;;;;;11.52;9.95;;;27.80;99.90;;;;;;5031670;28;20021;-86
2021/07/13 06:54:33;;;;;;;9.65;8.85;;;28.30;99.80;;;;;;5035709;28;20488;-86
2021/07/13 06:56:59;;;;;;;11.13;9.98;;;29.00;97.90;;;;;;5028393;28;20570;-81
2021/07/13 06:59:24;;;;;;;9.93;8.93;;;30.20;95.90;;;;;;5033958;28;20022;-85
2021/07/13 07:01:50;;;;;;;9.88;8.90;;;29.80;93.90;;;;;;5035262;28;20028;-82
2021/07/13 07:04:16;;;;;;;9.63;8.73;;;30.10;93.20;;;;;;5026962;28;20434;-82
2021/07/13 07:06:41;;;;;;;8.65;7.85;;;30.20;93.20;;;;;;5035260;28;20486;-82
2021/07/13 07:09:07;;;;;;;8.77;7.97;;;31.50;91.30;;;;;;5034626;28;20549;-82
2021/07/13 07:11:32;;;;;;;10.15;7.95;;;32.30;90.00;;;;;;5034305;28;20040;-81
2021/07/13 07:13:58;;;;;;;9.63;8.45;;;32.90;86.30;;;;;;5025716;28;20763;-82
2021/07/13 07:16:23;;;;;;;8.48;7.78;;;33.50;83.30;;;;;;5037884;28;20505;-82
2021/07/13 07:18:49;;;;;;;10.40;9.43;;;32.40;83.10;;;;;;5030654;28;20017;-82
2021/07/13 07:21:14;;;;;;;10.40;9.23;;;32.40;83.00;;;;;;5033171;28;20073;-82
2021/07/13 07:23:40;;;;;;;8.60;7.75;;;32.60;82.40;;;;;;5035341;28;20048;-84
2021/07/13 07:26:05;;;;;;;8.10;7.40;;;32.60;81.40;;;;;;5037417;28;20037;-84
2021/07/13 07:28:31;;;;;;;11.77;7.85;;;33.10;79.40;;;;;;5039655;28;20022;-83
2021/07/13 07:30:56;;;;;;;7.60;6.93;;;33.00;79.40;;;;;;5027293;28;20478;-85
2021/07/13 07:33:22;;;;;;;8.52;7.15;;;33.50;78.30;;;;;;5030584;28;20459;-82
2021/07/13 07:35:48;;;;;;;6.35;5.70;;;33.40;76.40;;;;;;5031207;28;20033;-82
2021/07/13 07:38:13;;;;;;;6.40;5.80;;;34.10;74.20;;;;;;5033583;28;20090;-82
2021/07/13 07:40:39;;;;;;;6.68;6.05;;;35.10;71.00;;;;;;5029869;28;20021;-82
2021/07/13 07:43:05;;;;;;;6.90;6.20;;;35.10;71.10;;;;;;5031320;28;20356;-82
2021/07/13 07:45:31;;;;;;;8.00;7.20;;;34.10;71.10;;;;;;5033471;28;20056;-81
2021/07/13 07:47:57;;;;;;;5.55;5.05;;;34.90;69.20;;;;;;5035246;28;20029;-82
2021/07/13 07:50:24;;;;;;;7.65;5.70;;;35.70;67.10;;;;;;5038946;28;20036;-83
2021/07/13 07:52:50;;;;;;;6.13;5.63;;;35.40;66.20;;;;;;5033730;28;20188;-83
2021/07/13 07:55:17;;;;;;;5.32;4.93;;;36.10;65.10;;;;;;5035507;28;20073;-81
2021/07/13 07:57:42;;;;;;;5.43;4.93;;;35.00;65.20;;;;;;5036180;28;20116;-81
2021/07/13 08:00:11;;;;;;;5.53;4.40;;;35.30;65.10;;;;;;5036258;28;20132;-82
2021/07/13 08:02:37;;;;;;;6.63;4.78;;;36.00;63.80;;;;;;5035929;28;20107;-81
2021/07/13 08:05:04;;;;;;;5.65;4.70;;;36.60;62.00;;;;;;5033446;28;20074;-84
2021/07/13 08:07:29;;;;;;;4.65;4.25;;;35.40;62.80;;;;;;5032838;28;20033;-82
2021/07/13 08:09:56;;;;;;;5.63;5.13;;;34.80;63.20;;;;;;5032841;28;20018;-82
2021/07/13 08:12:22;;;;;;;4.75;4.35;;;34.20;64.20;;;;;;5031943;28;20047;-83
2021/07/13 08:14:48;;;;;;;4.45;4.05;;;35.00;62.30;;;;;;5031183;28;20033;-82
2021/07/13 08:17:13;;;;;;;4.80;3.50;;;34.00;62.90;;;;;;5034577;28;20024;-83
2021/07/13 08:19:39;;;;;;;3.38;3.10;;;35.10;61.00;;;;;;5033757;28;20086;-82
2021/07/13 08:22:06;;;;;;;4.57;3.70;;;35.00;59.90;;;;;;5032666;28;20436;-83
2021/07/13 08:24:32;;;;;;;9.30;6.63;;;35.50;59.60;;;;;;5032295;28;20029;-84
2021/07/13 08:26:57;;;;;;;3.20;2.90;;;35.50;59.70;;;;;;5039282;28;20025;-82
2021/07/13 08:29:23;;;;;;;2.70;2.50;;;36.00;57.10;;;;;;5037020;28;20124;-83
2021/07/13 08:31:48;;;;;;;3.08;2.53;;;35.10;58.10;;;;;;5038076;28;20096;-84
2021/07/13 08:34:14;;;;;;;5.22;3.00;;;36.00;56.70;;;;;;5036382;28;20426;-83
2021/07/13 08:36:39;;;;;;;4.70;4.30;;;34.50;58.20;;;;;;5036035;28;20029;-83
2021/07/13 08:39:05;;;;;;;4.20;3.80;;;33.60;60.30;;;;;;5038162;28;20041;-84
2021/07/13 08:41:32;;;;;;;3.30;3.00;;;33.80;60.50;;;;;;5037301;28;20017;-83
2021/07/13 08:43:58;;;;;;;4.65;3.45;;;35.10;58.70;;;;;;5034754;28;20041;-82
2021/07/13 08:46:25;;;;;;;5.38;3.63;;;34.80;58.70;;;;;;5034417;28;20037;-85
2021/07/13 08:48:53;;;;;;;3.47;3.17;;;35.30;57.70;;;;;;5032510;28;20021;-82
2021/07/13 08:51:20;;;;;;;3.90;3.40;;;;;;;;;;5033176;28;20480;-83
2021/07/13 08:53:46;;;;;;;3.55;3.25;;;34.40;58.10;;;;;;5033410;28;20052;-83
2021/07/13 08:56:11;;;;;;;6.80;3.90;;;34.20;58.80;;;;;;5031423;28;20056;-83
2021/07/13 08:58:37;;;;;;;3.67;3.30;;;34.30;59.30;;;;;;5035987;28;20025;-83
2021/07/13 09:01:02;;;;;;;5.07;3.63;;;33.70;59.20;;;;;;5029259;28;20013;-84
2021/07/13 09:03:32;;;;;;;6.55;3.40;;;33.80;59.60;;;;;;5032322;28;20025;-86
2021/07/13 09:06:02;;;;;;;8.63;5.38;;;34.20;59.30;;;;;;5029011;28;20026;-83
2021/07/13 09:08:30;;;;;;;4.07;3.72;;;35.90;57.80;;;;;;5033229;28;20018;-83
2021/07/13 09:11:13;;;;;;;4.80;4.30;;;36.30;56.50;;;;;;5036924;28;20351;-84
2021/07/13 09:13:41;;;;;;;5.88;5.35;;;35.50;56.90;;;;;;5042157;28;20016;-84
2021/07/13 09:16:10;;;;;;;13.57;11.30;;;35.40;57.40;;;;;;5053257;28;20024;-85
2021/07/13 09:18:38;;;;;;;3.80;2.95;;;36.70;55.20;;;;;;5050119;28;20084;-86
2021/07/13 09:21:26;;;;;;;5.20;4.00;;;36.80;55.70;;;;;;5036765;28;20037;-84
2021/07/13 09:24:06;;;;;;;5.15;4.72;;;36.50;55.80;;;;;;5032910;28;20029;-83
2021/07/13 09:26:35;;;;;;;4.80;4.28;;;35.70;57.50;;;;;;5046717;28;20033;-84
2021/07/13 09:29:00;;;;;;;5.10;4.05;;;35.80;57.20;;;;;;5040294;28;20033;-84
2021/07/13 09:31:26;;;;;;;6.10;3.80;;;35.50;57.10;;;;;;5037279;28;20026;-82
2021/07/13 09:33:51;;;;;;;4.63;4.03;;;34.60;58.00;;;;;;5038475;28;20009;-83
2021/07/13 09:36:19;;;;;;;4.03;3.63;;;35.20;57.80;;;;;;5040458;28;20522;-83
2021/07/13 09:38:48;;;;;;;4.95;4.30;;;35.90;56.70;;;;;;5037149;28;20032;-84
2021/07/13 09:41:15;;;;;;;5.50;3.90;;;35.80;57.60;;;;;;5048949;28;20038;-83
2021/07/13 09:44:00;;;;;;;4.43;4.03;;;33.80;59.20;;;;;;5033781;28;20264;-83
2021/07/13 09:46:41;;;;;;;5.05;4.03;;;33.70;59.70;;;;;;5039253;28;20037;-83
2021/07/13 09:49:12;;;;;;;3.90;3.58;;;33.40;59.80;;;;;;5048422;28;20038;-83
2021/07/13 09:51:42;;;;;;;5.03;4.45;;;34.40;60.30;;;;;;5037194;28;20053;-84
2021/07/13 09:54:32;;;;;;;4.43;3.50;;;35.50;57.60;;;;;;5033938;28;20029;-83
2021/07/13 09:57:00;;;;;;;4.03;3.72;;;34.40;58.50;;;;;;5036498;28;20033;-83
2021/07/13 09:59:26;;;;;;;4.35;3.97;;;34.40;59.10;;;;;;5038894;28;20025;-85
2021/07/13 10:01:52;;;;;;;4.95;4.30;;;35.80;57.90;;;;;;5039242;28;20033;-84
2021/07/13 10:04:18;;;;;;;5.28;3.90;;;36.60;56.00;;;;;;5040291;28;20029;-84
2021/07/13 10:06:46;;;;;;;4.70;4.30;;;37.10;55.60;;;;;;5039569;28;20040;-85
2021/07/13 10:09:13;;;;;;;4.05;3.60;;;36.40;56.00;;;;;;5041698;28;20053;-84
2021/07/13 10:11:39;;;;;;;4.22;3.50;;;36.30;55.90;;;;;;5040999;28;20067;-83
2021/07/13 10:14:11;;;;;;;6.60;4.70;;;37.10;55.00;;;;;;5044689;28;20088;-83
2021/07/13 10:16:38;;;;;;;4.65;3.50;;;37.00;55.50;;;;;;5039903;28;20055;-83
2021/07/13 10:19:07;;;;;;;4.60;4.20;;;36.90;55.30;;;;;;5045493;28;20029;-83
2021/07/13 10:21:33;;;;;;;;;;;37.20;54.60;;;;;;5046549;28;20041;-83
2021/07/13 10:24:02;;;;;;;5.43;3.50;;;36.40;54.30;;;;;;5047123;28;20440;-83
2021/07/13 10:26:51;;;;;;;4.97;4.57;;;36.30;55.00;;;;;;5048234;28;20048;-82
2021/07/13 10:29:32;;;;;;;5.00;4.20;;;35.10;56.30;;;;;;5025169;28;20026;-84
2021/07/13 10:32:06;;;;;;;3.38;3.08;;;34.40;57.70;;;;;;5029999;28;20082;-82
2021/07/13 10:35:02;;;;;;;5.88;3.78;;;34.40;57.10;;;;;;5039028;28;20021;-82
2021/07/13 10:37:42;;;;;;;4.03;3.63;;;35.20;57.60;;;;;;5038020;28;20088;-82
2021/07/13 10:40:33;;;;;;;4.80;3.60;;;33.70;57.50;;;;;;5043897;28;20032;-83
2021/07/13 10:43:02;;;;;;;6.55;4.28;;;32.90;59.40;;;;;;5035136;28;20264;-82
2021/07/13 10:45:33;;;;;;;3.87;3.57;;;32.60;59.80;;;;;;5040913;28;20029;-81
2021/07/13 10:48:15;;;;;;;5.78;3.50;;;32.90;59.60;;;;;;5043419;28;20021;-82
2021/07/13 10:50:59;;;;;;;7.25;5.10;;;32.70;59.30;;;;;;5047543;28;20025;-81
2021/07/13 10:53:25;;;;;;;3.95;3.20;;;;;;;;;;5039431;28;20108;-83
2021/07/13 10:56:03;;;;;;;4.22;3.60;;;32.70;58.40;;;;;;5046798;28;20531;-82
2021/07/13 10:58:34;;;;;;;4.05;3.65;;;33.40;58.60;;;;;;5047395;28;20456;-83
2021/07/13 11:01:09;;;;;;;4.75;4.25;;;33.30;57.40;;;;;;5044367;28;20028;-83
2021/07/13 11:03:38;;;;;;;4.97;4.50;;;33.40;58.10;;;;;;5041757;28;20044;-83
2021/07/13 11:06:09;;;;;;;5.80;3.92;;;33.20;58.40;;;;;;5029365;28;20029;-82
2021/07/13 11:08:40;;;;;;;4.20;3.58;;;33.30;57.80;;;;;;5037861;28;20029;-81
2021/07/13 11:11:06;;;;;;;5.18;4.25;;;33.10;56.90;;;;;;5032749;28;20111;-81
2021/07/13 11:13:33;;;;;;;3.55;3.25;;;33.10;57.90;;;;;;5033769;28;20024;-81
2021/07/13 11:15:58;;;;;;;6.20;4.78;;;32.90;58.40;;;;;;5033077;28;20021;-83
2021/07/13 11:18:30;;;;;;;4.00;3.47;;;32.60;58.40;;;;;;5023870;28;20028;-83
2021/07/13 11:21:20;;;;;;;6.15;3.97;;;33.30;57.70;;;;;;5037782;28;20044;-82
2021/07/13 11:24:26;;;;;;;3.65;3.33;;;33.30;57.90;;;;;;5044109;28;20041;-82
2021/07/13 11:29:29;;;;;;;4.70;3.08;;;33.80;55.60;;;;;;5838419;22;20326;-82
2021/07/13 11:32:00;;;;;;;6.28;3.22;;;33.70;56.60;;;;;;5044696;28;20029;-81
2021/07/13 11:34:35;;;;;;;3.90;3.33;;;32.90;57.20;;;;;;5037324;28;20029;-82
2021/07/13 11:37:05;;;;;;;4.45;4.05;;;32.20;58.30;;;;;;5036816;28;20036;-82
2021/07/13 11:39:38;;;;;;;5.22;4.72;;;31.70;59.20;;;;;;5046172;28;20431;-83
2021/07/13 11:42:08;;;;;;;4.28;3.88;;;31.60;59.80;;;;;;5037464;28;20547;-84
2021/07/13 11:44:35;;;;;;;4.68;4.03;;;31.40;60.60;;;;;;5025050;28;20022;-84
2021/07/13 11:47:01;;;;;;;4.13;3.83;;;31.20;60.60;;;;;;4992180;28;20080;-84
2021/07/13 11:49:33;;;;;;;4.28;3.58;;;31.10;60.10;;;;;;4997819;28;20108;-84
2021/07/13 11:52:05;;;;;;;6.20;3.92;;;31.10;59.90;;;;;;5009298;28;20014;-84
2021/07/13 11:54:39;;;;;;;5.22;4.10;;;31.10;60.30;;;;;;5014035;28;20034;-84
2021/07/13 11:57:07;;;;;;;5.75;4.22;;;31.50;60.20;;;;;;5003414;28;20025;-84
2021/07/13 11:59:34;;;;;;;6.35;4.22;;;31.50;59.80;;;;;;4987566;28;20026;-84
2021/07/13 12:02:03;;;;;;;5.10;4.60;;;31.40;60.60;;;;;;5012103;28;20034;-84
2021/07/13 12:04:30;;;;;;;7.18;5.75;;;31.70;60.30;;;;;;5007097;28;20030;-81
2021/07/13 12:07:00;;;;;;;5.65;5.13;;;32.30;59.60;;;;;;4982454;28;20457;-82
2021/07/13 12:09:28;;;;;;;7.28;6.38;;;33.20;58.60;;;;;;5001887;28;20029;-83
2021/07/13 12:11:59;;;;;;;5.63;4.80;;;33.60;58.50;;;;;;5001558;28;20412;-83
2021/07/13 12:14:26;;;;;;;6.55;5.95;;;33.50;57.80;;;;;;5003112;28;20022;-83
2021/07/13 12:16:54;;;;;;;7.55;6.75;;;33.20;59.00;;;;;;5004662;28;20038;-83
2021/07/13 12:19:21;;;;;;;6.85;6.22;;;32.70;59.70;;;;;;5002161;28;20045;-84
2021/07/13 12:21:49;;;;;;;5.80;5.20;;;32.40;59.80;;;;;;5002187;28;20515;-84
2021/07/13 12:24:19;;;;;;;8.98;5.40;;;32.00;61.40;;;;;;5004882;28;20476;-83
2021/07/13 12:26:55;;;;;;;7.00;5.90;;;31.90;60.60;;;;;;5005246;28;20076;-83
2021/07/13 12:29:22;;;;;;;5.22;4.72;;;31.70;60.60;;;;;;5001847;28;20440;-81
2021/07/13 12:31:47;;;;;;;8.38;6.07;;;32.20;59.70;;;;;;5005454;28;20474;-82
2021/07/13 12:34:41;;;;;;;7.63;5.32;;;32.70;59.90;;;;;;5006363;28;20062;-82
2021/07/13 12:37:21;;;;;;;8.25;7.50;;;33.40;58.90;;;;;;4989843;28;20037;-82
2021/07/13 12:39:50;;;;;;;6.35;5.85;;;33.90;57.30;;;;;;5007205;28;20034;-82
2021/07/13 12:42:23;;;;;;;8.02;6.40;;;33.50;58.50;;;;;;5004442;28;20037;-82
2021/07/13 12:44:54;;;;;;;6.18;5.63;;;33.70;58.90;;;;;;5004123;28;20084;-82
2021/07/13 12:47:47;;;;;;;6.10;5.60;;;33.90;59.10;;;;;;5006100;28;20388;-81